In Rescue
 
Open Full Screen Window  High Contrast Mode
January 22, 2020 5:26 PM EST
Weather Information
Wind Direction
  ---
Wind Speed
  00 kt (0 mph)
Wind Gust
  00 kt (0 mph)
Altimeter
30.32 in
Visibility
10 SM
Temperature
-01° C
30° F
Dewpoint
-10° C
14° F
Humidity
51%
1hr Rain Fall
00.00 in.
24hr Rain Fall
00.00 in.
Sky Condition
Clear
VFR

METAR KPOV 222226Z AUTO 00000KT 10SM CLR M01/M10 A3032 RMK AO2 T10131098 PWINO

FAA Disclaimer: The data displayed is for advisory purposes only and is not to be used for flight planning or operations.